sensor_id;sensor_type;location;lat;lon;timestamp;pressure;altitude;pressure_sealevel;temperature
73734;BMP280;62039;50.000;9.064;2022-12-18T00:02:08;101768.00;;;-7.76
73734;BMP280;62039;50.000;9.064;2022-12-18T00:04:35;101767.16;;;-7.77
73734;BMP280;62039;50.000;9.064;2022-12-18T00:07:01;101774.78;;;-7.78
73734;BMP280;62039;50.000;9.064;2022-12-18T00:09:28;101784.09;;;-7.79
73734;BMP280;62039;50.000;9.064;2022-12-18T00:12:06;101788.34;;;-7.81
73734;BMP280;62039;50.000;9.064;2022-12-18T00:14:41;101785.81;;;-7.82
73734;BMP280;62039;50.000;9.064;2022-12-18T00:17:09;101792.56;;;-7.84
73734;BMP280;62039;50.000;9.064;2022-12-18T00:19:35;101790.88;;;-7.85
73734;BMP280;62039;50.000;9.064;2022-12-18T00:22:02;101790.91;;;-7.87
73734;BMP280;62039;50.000;9.064;2022-12-18T00:24:28;101785.00;;;-7.89
73734;BMP280;62039;50.000;9.064;2022-12-18T00:26:55;101796.00;;;-7.90
73734;BMP280;62039;50.000;9.064;2022-12-18T00:29:21;101795.13;;;-7.92
73734;BMP280;62039;50.000;9.064;2022-12-18T00:31:48;101790.06;;;-7.92
73734;BMP280;62039;50.000;9.064;2022-12-18T00:34:16;101794.31;;;-7.94
73734;BMP280;62039;50.000;9.064;2022-12-18T00:36:43;101801.09;;;-7.96
73734;BMP280;62039;50.000;9.064;2022-12-18T00:39:10;101801.09;;;-7.96
73734;BMP280;62039;50.000;9.064;2022-12-18T00:41:37;101794.31;;;-7.97
73734;BMP280;62039;50.000;9.064;2022-12-18T00:44:04;101787.56;;;-7.98
73734;BMP280;62039;50.000;9.064;2022-12-18T00:46:31;101789.28;;;-8.00
73734;BMP280;62039;50.000;9.064;2022-12-18T00:48:58;101791.81;;;-8.02
73734;BMP280;62039;50.000;9.064;2022-12-18T00:51:26;101799.44;;;-8.03
73734;BMP280;62039;50.000;9.064;2022-12-18T00:53:53;101795.19;;;-8.06
73734;BMP280;62039;50.000;9.064;2022-12-18T00:56:19;101787.63;;;-8.07
73734;BMP280;62039;50.000;9.064;2022-12-18T00:58:46;101777.47;;;-8.09
73734;BMP280;62039;50.000;9.064;2022-12-18T01:01:13;101773.25;;;-8.11
73734;BMP280;62039;50.000;9.064;2022-12-18T01:03:40;101773.25;;;-8.13
73734;BMP280;62039;50.000;9.064;2022-12-18T01:06:08;101788.50;;;-8.14
73734;BMP280;62039;50.000;9.064;2022-12-18T01:08:36;101796.09;;;-8.16
73734;BMP280;62039;50.000;9.064;2022-12-18T01:11:07;101785.94;;;-8.17
73734;BMP280;62039;50.000;9.064;2022-12-18T01:13:34;101783.41;;;-8.19
73734;BMP280;62039;50.000;9.064;2022-12-18T01:16:01;101785.97;;;-8.20
73734;BMP280;62039;50.000;9.064;2022-12-18T01:18:28;101792.72;;;-8.22
73734;BMP280;62039;50.000;9.064;2022-12-18T01:20:55;101797.81;;;-8.24
73734;BMP280;62039;50.000;9.064;2022-12-18T01:23:21;101790.19;;;-8.25
73734;BMP280;62039;50.000;9.064;2022-12-18T01:25:49;101788.53;;;-8.28
73734;BMP280;62039;50.000;9.064;2022-12-18T01:28:15;101783.47;;;-8.29
73734;BMP280;62039;50.000;9.064;2022-12-18T01:30:42;101791.06;;;-8.32
73734;BMP280;62039;50.000;9.064;2022-12-18T01:33:09;101795.31;;;-8.34
73734;BMP280;62039;50.000;9.064;2022-12-18T01:35:40;101797.00;;;-8.36
73734;BMP280;62039;50.000;9.064;2022-12-18T01:38:07;101808.81;;;-8.38
73734;BMP280;62039;50.000;9.064;2022-12-18T01:40:34;101823.22;;;-8.41
73734;BMP280;62039;50.000;9.064;2022-12-18T01:43:03;101829.97;;;-8.43
73734;BMP280;62039;50.000;9.064;2022-12-18T01:45:32;101821.53;;;-8.45
73734;BMP280;62039;50.000;9.064;2022-12-18T01:48:01;101824.06;;;-8.46
73734;BMP280;62039;50.000;9.064;2022-12-18T01:50:31;101819.84;;;-8.49
73734;BMP280;62039;50.000;9.064;2022-12-18T01:53:02;101815.63;;;-8.51
73734;BMP280;62039;50.000;9.064;2022-12-18T01:55:32;101816.44;;;-8.54
73734;BMP280;62039;50.000;9.064;2022-12-18T01:58:03;101825.78;;;-8.56
73734;BMP280;62039;50.000;9.064;2022-12-18T02:00:30;101830.00;;;-8.58
73734;BMP280;62039;50.000;9.064;2022-12-18T02:02:57;101815.63;;;-8.60
73734;BMP280;62039;50.000;9.064;2022-12-18T02:05:30;101809.72;;;-8.61
73734;BMP280;62039;50.000;9.064;2022-12-18T02:08:04;101810.56;;;-8.65
73734;BMP280;62039;50.000;9.064;2022-12-18T02:10:38;101802.09;;;-8.67
73734;BMP280;62039;50.000;9.064;2022-12-18T02:13:13;101810.59;;;-8.68
73734;BMP280;62039;50.000;9.064;2022-12-18T02:15:46;101805.50;;;-8.71
73734;BMP280;62039;50.000;9.064;2022-12-18T02:18:19;101817.34;;;-8.74
73734;BMP280;62039;50.000;9.064;2022-12-18T02:20:49;101823.25;;;-8.77
73734;BMP280;62039;50.000;9.064;2022-12-18T02:23:28;101815.66;;;-8.78
73734;BMP280;62039;50.000;9.064;2022-12-18T02:26:06;101816.50;;;-8.81
73734;BMP280;62039;50.000;9.064;2022-12-18T02:28:36;101812.28;;;-8.84
73734;BMP280;62039;50.000;9.064;2022-12-18T02:31:08;101811.41;;;-8.86
73734;BMP280;62039;50.000;9.064;2022-12-18T02:33:38;101811.41;;;-8.87
73734;BMP280;62039;50.000;9.064;2022-12-18T02:36:06;101807.22;;;-8.88
73734;BMP280;62039;50.000;9.064;2022-12-18T02:38:34;101799.63;;;-8.90
73734;BMP280;62039;50.000;9.064;2022-12-18T02:41:03;101799.59;;;-8.91
73734;BMP280;62039;50.000;9.064;2022-12-18T02:43:31;101801.28;;;-8.93
73734;BMP280;62039;50.000;9.064;2022-12-18T02:45:59;101799.59;;;-8.94
73734;BMP280;62039;50.000;9.064;2022-12-18T02:48:31;101798.78;;;-8.96
73734;BMP280;62039;50.000;9.064;2022-12-18T02:51:03;101797.91;;;-8.98
73734;BMP280;62039;50.000;9.064;2022-12-18T02:53:36;101794.53;;;-9.00
73734;BMP280;62039;50.000;9.064;2022-12-18T02:56:10;101789.47;;;-9.03
73734;BMP280;62039;50.000;9.064;2022-12-18T02:58:45;101799.59;;;-9.05
73734;BMP280;62039;50.000;9.064;2022-12-18T03:01:18;101799.59;;;-9.06
73734;BMP280;62039;50.000;9.064;2022-12-18T03:03:49;101793.72;;;-9.08
73734;BMP280;62039;50.000;9.064;2022-12-18T03:06:21;101808.06;;;-9.09
73734;BMP280;62039;50.000;9.064;2022-12-18T03:08:52;101808.06;;;-9.10
73734;BMP280;62039;50.000;9.064;2022-12-18T03:11:21;101799.59;;;-9.12
73734;BMP280;62039;50.000;9.064;2022-12-18T03:13:51;101802.13;;;-9.14
73734;BMP280;62039;50.000;9.064;2022-12-18T03:16:23;101809.75;;;-9.15
73734;BMP280;62039;50.000;9.064;2022-12-18T03:18:53;101801.28;;;-9.17
73734;BMP280;62039;50.000;9.064;2022-12-18T03:21:26;101802.13;;;-9.18
73734;BMP280;62039;50.000;9.064;2022-12-18T03:23:54;101802.97;;;-9.20
73734;BMP280;62039;50.000;9.064;2022-12-18T03:26:25;101805.50;;;-9.23
73734;BMP280;62039;50.000;9.064;2022-12-18T03:28:53;101806.34;;;-9.22
73734;BMP280;62039;50.000;9.064;2022-12-18T03:31:23;101791.16;;;-9.24
73734;BMP280;62039;50.000;9.064;2022-12-18T03:33:52;101789.47;;;-9.25
73734;BMP280;62039;50.000;9.064;2022-12-18T03:36:20;101794.53;;;-9.25
73734;BMP280;62039;50.000;9.064;2022-12-18T03:38:46;101788.59;;;-9.27
73734;BMP280;62039;50.000;9.064;2022-12-18T03:41:17;101779.31;;;-9.28
73734;BMP280;62039;50.000;9.064;2022-12-18T03:43:51;101786.09;;;-9.30
73734;BMP280;62039;50.000;9.064;2022-12-18T03:46:26;101781.88;;;-9.31
73734;BMP280;62039;50.000;9.064;2022-12-18T03:48:59;101784.38;;;-9.32
73734;BMP280;62039;50.000;9.064;2022-12-18T03:51:34;101786.09;;;-9.36
73734;BMP280;62039;50.000;9.064;2022-12-18T03:54:04;101799.59;;;-9.37
73734;BMP280;62039;50.000;9.064;2022-12-18T03:56:36;101791.13;;;-9.39
73734;BMP280;62039;50.000;9.064;2022-12-18T03:59:05;101793.66;;;-9.40
73734;BMP280;62039;50.000;9.064;2022-12-18T04:01:34;101797.88;;;-9.41
73734;BMP280;62039;50.000;9.064;2022-12-18T04:04:03;101799.56;;;-9.43
73734;BMP280;62039;50.000;9.064;2022-12-18T04:06:31;101802.09;;;-9.44
73734;BMP280;62039;50.000;9.064;2022-12-18T04:08:58;101797.03;;;-9.46
73734;BMP280;62039;50.000;9.064;2022-12-18T04:11:25;101786.91;;;-9.47
73734;BMP280;62039;50.000;9.064;2022-12-18T04:13:56;101784.38;;;-9.49
73734;BMP280;62039;50.000;9.064;2022-12-18T04:16:25;101790.28;;;-9.50
73734;BMP280;62039;50.000;9.064;2022-12-18T04:18:52;101791.13;;;-9.51
73734;BMP280;62039;50.000;9.064;2022-12-18T04:21:19;101791.97;;;-9.52
73734;BMP280;62039;50.000;9.064;2022-12-18T04:23:46;101804.59;;;-9.52
73734;BMP280;62039;50.000;9.064;2022-12-18T04:26:13;101797.84;;;-9.53
73734;BMP280;62039;50.000;9.064;2022-12-18T04:28:39;101789.44;;;-9.55
73734;BMP280;62039;50.000;9.064;2022-12-18T04:31:06;101781.00;;;-9.57
73734;BMP280;62039;50.000;9.064;2022-12-18T04:33:34;101786.88;;;-9.60
73734;BMP280;62039;50.000;9.064;2022-12-18T04:36:00;101784.31;;;-9.61
73734;BMP280;62039;50.000;9.064;2022-12-18T04:38:27;101780.97;;;-9.60
73734;BMP280;62039;50.000;9.064;2022-12-18T04:40:53;101785.19;;;-9.61
73734;BMP280;62039;50.000;9.064;2022-12-18T04:43:20;101777.59;;;-9.62
73734;BMP280;62039;50.000;9.064;2022-12-18T04:45:47;101787.72;;;-9.62
73734;BMP280;62039;50.000;9.064;2022-12-18T04:48:13;101787.72;;;-9.64
73734;BMP280;62039;50.000;9.064;2022-12-18T04:50:41;101785.19;;;-9.64
73734;BMP280;62039;50.000;9.064;2022-12-18T04:53:08;101783.50;;;-9.65
73734;BMP280;62039;50.000;9.064;2022-12-18T04:55:35;101786.03;;;-9.65
73734;BMP280;62039;50.000;9.064;2022-12-18T04:58:01;101793.63;;;-9.65
73734;BMP280;62039;50.000;9.064;2022-12-18T05:00:28;101791.06;;;-9.66
73734;BMP280;62039;50.000;9.064;2022-12-18T05:02:55;101788.53;;;-9.66
73734;BMP280;62039;50.000;9.064;2022-12-18T05:05:21;101780.09;;;-9.67
73734;BMP280;62039;50.000;9.064;2022-12-18T05:07:49;101775.03;;;-9.68
73734;BMP280;62039;50.000;9.064;2022-12-18T05:10:16;101782.63;;;-9.68
73734;BMP280;62039;50.000;9.064;2022-12-18T05:12:42;101784.34;;;-9.69
73734;BMP280;62039;50.000;9.064;2022-12-18T05:15:09;101775.06;;;-9.70
73734;BMP280;62039;50.000;9.064;2022-12-18T05:17:36;101778.41;;;-9.71
73734;BMP280;62039;50.000;9.064;2022-12-18T05:20:03;101775.88;;;-9.72
73734;BMP280;62039;50.000;9.064;2022-12-18T05:22:29;101780.94;;;-9.74
73734;BMP280;62039;50.000;9.064;2022-12-18T05:24:57;101786.84;;;-9.76
73734;BMP280;62039;50.000;9.064;2022-12-18T05:27:24;101788.53;;;-9.78
73734;BMP280;62039;50.000;9.064;2022-12-18T05:29:50;101799.47;;;-9.78
73734;BMP280;62039;50.000;9.064;2022-12-18T05:32:17;101800.31;;;-9.77
73734;BMP280;62039;50.000;9.064;2022-12-18T05:34:43;101802.84;;;-9.77
73734;BMP280;62039;50.000;9.064;2022-12-18T05:37:10;101799.47;;;-9.78
73734;BMP280;62039;50.000;9.064;2022-12-18T05:39:36;101795.25;;;-9.79
73734;BMP280;62039;50.000;9.064;2022-12-18T05:42:04;101795.25;;;-9.79
73734;BMP280;62039;50.000;9.064;2022-12-18T05:44:31;101797.78;;;-9.80
73734;BMP280;62039;50.000;9.064;2022-12-18T05:46:57;101795.25;;;-9.80
73734;BMP280;62039;50.000;9.064;2022-12-18T05:49:24;101795.22;;;-9.82
73734;BMP280;62039;50.000;9.064;2022-12-18T05:51:50;101801.16;;;-9.83
73734;BMP280;62039;50.000;9.064;2022-12-18T05:54:17;101791.88;;;-9.84
73734;BMP280;62039;50.000;9.064;2022-12-18T05:56:44;101789.34;;;-9.85
73734;BMP280;62039;50.000;9.064;2022-12-18T05:59:15;101791.84;;;-9.87
73734;BMP280;62039;50.000;9.064;2022-12-18T06:01:42;101791.00;;;-9.87
73734;BMP280;62039;50.000;9.064;2022-12-18T06:04:09;101790.16;;;-9.88
73734;BMP280;62039;50.000;9.064;2022-12-18T06:06:35;101788.47;;;-9.87
73734;BMP280;62039;50.000;9.064;2022-12-18T06:09:02;101791.00;;;-9.87
73734;BMP280;62039;50.000;9.064;2022-12-18T06:11:29;101791.03;;;-9.89
73734;BMP280;62039;50.000;9.064;2022-12-18T06:13:56;101790.16;;;-9.88
73734;BMP280;62039;50.000;9.064;2022-12-18T06:16:26;101798.63;;;-9.89
73734;BMP280;62039;50.000;9.064;2022-12-18T06:18:53;101798.63;;;-9.89
73734;BMP280;62039;50.000;9.064;2022-12-18T06:21:19;101795.22;;;-9.89
73734;BMP280;62039;50.000;9.064;2022-12-18T06:23:46;101799.44;;;-9.91
73734;BMP280;62039;50.000;9.064;2022-12-18T06:26:13;101810.41;;;-9.91
73734;BMP280;62039;50.000;9.064;2022-12-18T06:28:40;101804.50;;;-9.91
73734;BMP280;62039;50.000;9.064;2022-12-18T06:31:07;101812.91;;;-9.92
73734;BMP280;62039;50.000;9.064;2022-12-18T06:33:35;101810.38;;;-9.92
73734;BMP280;62039;50.000;9.064;2022-12-18T06:36:05;101817.13;;;-9.93
73734;BMP280;62039;50.000;9.064;2022-12-18T06:38:32;101812.06;;;-9.93
73734;BMP280;62039;50.000;9.064;2022-12-18T06:40:59;101810.38;;;-9.94
73734;BMP280;62039;50.000;9.064;2022-12-18T06:43:26;101807.84;;;-9.95
73734;BMP280;62039;50.000;9.064;2022-12-18T06:45:58;101820.50;;;-9.95
73734;BMP280;62039;50.000;9.064;2022-12-18T06:48:25;101825.56;;;-9.97
73734;BMP280;62039;50.000;9.064;2022-12-18T06:50:53;101828.06;;;-9.98
73734;BMP280;62039;50.000;9.064;2022-12-18T06:53:19;101828.91;;;-10.00
73734;BMP280;62039;50.000;9.064;2022-12-18T06:55:46;101831.44;;;-10.03
73734;BMP280;62039;50.000;9.064;2022-12-18T06:58:12;101837.28;;;-10.07
73734;BMP280;62039;50.000;9.064;2022-12-18T07:00:39;101838.16;;;-10.09
73734;BMP280;62039;50.000;9.064;2022-12-18T07:03:05;101844.88;;;-10.10
73734;BMP280;62039;50.000;9.064;2022-12-18T07:05:32;101847.41;;;-10.10
73734;BMP280;62039;50.000;9.064;2022-12-18T07:08:00;101853.31;;;-10.09
73734;BMP280;62039;50.000;9.064;2022-12-18T07:10:27;101847.41;;;-10.10
73734;BMP280;62039;50.000;9.064;2022-12-18T07:12:53;101848.25;;;-10.09
73734;BMP280;62039;50.000;9.064;2022-12-18T07:15:20;101841.50;;;-10.09
73734;BMP280;62039;50.000;9.064;2022-12-18T07:17:46;101846.53;;;-10.09
73734;BMP280;62039;50.000;9.064;2022-12-18T07:20:13;101849.94;;;-10.10
73734;BMP280;62039;50.000;9.064;2022-12-18T07:22:39;101855.00;;;-10.10
73734;BMP280;62039;50.000;9.064;2022-12-18T07:25:07;101857.53;;;-10.10
73734;BMP280;62039;50.000;9.064;2022-12-18T07:27:34;101871.00;;;-10.11
73734;BMP280;62039;50.000;9.064;2022-12-18T07:30:01;101869.31;;;-10.10
73734;BMP280;62039;50.000;9.064;2022-12-18T07:32:27;101870.16;;;-10.11
73734;BMP280;62039;50.000;9.064;2022-12-18T07:34:54;101876.88;;;-10.12
73734;BMP280;62039;50.000;9.064;2022-12-18T07:37:21;101871.81;;;-10.15
73734;BMP280;62039;50.000;9.064;2022-12-18T07:39:47;101868.44;;;-10.14
73734;BMP280;62039;50.000;9.064;2022-12-18T07:42:16;101866.78;;;-10.12
73734;BMP280;62039;50.000;9.064;2022-12-18T07:44:43;101856.66;;;-10.12
73734;BMP280;62039;50.000;9.064;2022-12-18T07:47:09;101853.31;;;-10.11
73734;BMP280;62039;50.000;9.064;2022-12-18T07:49:38;101855.84;;;-10.09
73734;BMP280;62039;50.000;9.064;2022-12-18T07:52:04;101853.31;;;-10.08
73734;BMP280;62039;50.000;9.064;2022-12-18T07:54:31;101855.84;;;-10.06
73734;BMP280;62039;50.000;9.064;2022-12-18T07:56:57;101863.44;;;-10.05
73734;BMP280;62039;50.000;9.064;2022-12-18T07:59:25;101868.47;;;-10.08
73734;BMP280;62039;50.000;9.064;2022-12-18T08:01:51;101867.63;;;-10.08
73734;BMP280;62039;50.000;9.064;2022-12-18T08:04:18;101860.88;;;-10.08
73734;BMP280;62039;50.000;9.064;2022-12-18T08:06:45;101865.13;;;-10.07
73734;BMP280;62039;50.000;9.064;2022-12-18T08:09:14;101864.28;;;-10.06
73734;BMP280;62039;50.000;9.064;2022-12-18T08:11:40;101878.63;;;-10.05
73734;BMP280;62039;50.000;9.064;2022-12-18T08:14:07;101871.03;;;-10.03
73734;BMP280;62039;50.000;9.064;2022-12-18T08:16:35;101870.19;;;-10.01
73734;BMP280;62039;50.000;9.064;2022-12-18T08:19:02;101873.59;;;-9.98
73734;BMP280;62039;50.000;9.064;2022-12-18T08:21:30;101867.72;;;-9.96
73734;BMP280;62039;50.000;9.064;2022-12-18T08:23:58;101867.72;;;-9.93
73734;BMP280;62039;50.000;9.064;2022-12-18T08:26:26;101864.38;;;-9.90
73734;BMP280;62039;50.000;9.064;2022-12-18T08:28:54;101864.38;;;-9.89
73734;BMP280;62039;50.000;9.064;2022-12-18T08:31:21;101865.22;;;-9.85
73734;BMP280;62039;50.000;9.064;2022-12-18T08:33:51;101870.31;;;-9.82
73734;BMP280;62039;50.000;9.064;2022-12-18T08:36:18;101866.06;;;-9.80
73734;BMP280;62039;50.000;9.064;2022-12-18T08:38:45;101857.66;;;-9.78
73734;BMP280;62039;50.000;9.064;2022-12-18T08:41:13;101861.88;;;-9.74
73734;BMP280;62039;50.000;9.064;2022-12-18T08:43:40;101860.22;;;-9.70
73734;BMP280;62039;50.000;9.064;2022-12-18T08:46:07;101861.06;;;-9.67
73734;BMP280;62039;50.000;9.064;2022-12-18T08:48:34;101866.16;;;-9.64
73734;BMP280;62039;50.000;9.064;2022-12-18T08:51:02;101857.72;;;-9.60
73734;BMP280;62039;50.000;9.064;2022-12-18T08:53:29;101853.53;;;-9.56
73734;BMP280;62039;50.000;9.064;2022-12-18T08:56:01;101855.22;;;-9.52
73734;BMP280;62039;50.000;9.064;2022-12-18T08:58:27;101846.78;;;-9.48
73734;BMP280;62039;50.000;9.064;2022-12-18T09:00:54;101844.31;;;-9.42
73734;BMP280;62039;50.000;9.064;2022-12-18T09:03:20;101841.75;;;-9.39
73734;BMP280;62039;50.000;9.064;2022-12-18T09:05:47;101835.03;;;-9.37
73734;BMP280;62039;50.000;9.064;2022-12-18T09:08:15;101835.03;;;-9.37
73734;BMP280;62039;50.000;9.064;2022-12-18T09:10:42;101822.38;;;-9.37
73734;BMP280;62039;50.000;9.064;2022-12-18T09:13:09;101832.50;;;-9.35
73734;BMP280;62039;50.000;9.064;2022-12-18T09:15:40;101840.09;;;-9.32
73734;BMP280;62039;50.000;9.064;2022-12-18T09:18:07;101842.63;;;-9.28
73734;BMP280;62039;50.000;9.064;2022-12-18T09:20:33;101848.56;;;-9.23
73734;BMP280;62039;50.000;9.064;2022-12-18T09:23:00;101855.31;;;-9.15
73734;BMP280;62039;50.000;9.064;2022-12-18T09:25:28;101861.25;;;-9.09
73734;BMP280;62039;50.000;9.064;2022-12-18T09:27:55;101862.94;;;-9.02
73734;BMP280;62039;50.000;9.064;2022-12-18T09:30:21;101859.56;;;-8.95
73734;BMP280;62039;50.000;9.064;2022-12-18T09:32:48;101873.09;;;-8.88
73734;BMP280;62039;50.000;9.064;2022-12-18T09:35:14;101865.50;;;-8.82
73734;BMP280;62039;50.000;9.064;2022-12-18T09:37:41;101874.78;;;-8.75
73734;BMP280;62039;50.000;9.064;2022-12-18T09:40:13;101865.50;;;-8.70
73734;BMP280;62039;50.000;9.064;2022-12-18T09:42:45;101871.38;;;-8.65
73734;BMP280;62039;50.000;9.064;2022-12-18T09:45:14;101872.22;;;-8.60
73734;BMP280;62039;50.000;9.064;2022-12-18T09:47:42;101872.22;;;-8.54
73734;BMP280;62039;50.000;9.064;2022-12-18T09:50:21;101870.56;;;-8.49
73734;BMP280;62039;50.000;9.064;2022-12-18T09:52:51;101872.22;;;-8.43
73734;BMP280;62039;50.000;9.064;2022-12-18T09:55:23;101872.22;;;-8.37
73734;BMP280;62039;50.000;9.064;2022-12-18T09:57:55;101870.53;;;-8.32
73734;BMP280;62039;50.000;9.064;2022-12-18T10:00:24;101873.88;;;-8.25
73734;BMP280;62039;50.000;9.064;2022-12-18T10:02:52;101871.34;;;-8.19
73734;BMP280;62039;50.000;9.064;2022-12-18T10:05:29;101867.09;;;-8.11
73734;BMP280;62039;50.000;9.064;2022-12-18T10:08:02;101854.41;;;-8.05
73734;BMP280;62039;50.000;9.064;2022-12-18T10:10:37;101856.06;;;-7.98
73734;BMP280;62039;50.000;9.064;2022-12-18T10:13:15;101850.13;;;-7.91
73734;BMP280;62039;50.000;9.064;2022-12-18T10:15:53;101852.63;;;-7.83
73734;BMP280;62039;50.000;9.064;2022-12-18T10:18:30;101856.84;;;-7.78
73734;BMP280;62039;50.000;9.064;2022-12-18T10:21:03;101866.97;;;-7.70
73734;BMP280;62039;50.000;9.064;2022-12-18T10:23:34;101861.84;;;-7.66
73734;BMP280;62039;50.000;9.064;2022-12-18T10:26:13;101863.56;;;-7.62
73734;BMP280;62039;50.000;9.064;2022-12-18T10:28:41;101868.59;;;-7.58
73734;BMP280;62039;50.000;9.064;2022-12-18T10:31:14;101866.06;;;-7.55
73734;BMP280;62039;50.000;9.064;2022-12-18T10:33:42;101860.09;;;-7.51
73734;BMP280;62039;50.000;9.064;2022-12-18T10:36:09;101850.78;;;-7.49
73734;BMP280;62039;50.000;9.064;2022-12-18T10:38:36;101844.00;;;-7.46
73734;BMP280;62039;50.000;9.064;2022-12-18T10:41:04;101841.44;;;-7.41
73734;BMP280;62039;50.000;9.064;2022-12-18T10:43:34;101844.78;;;-7.39
73734;BMP280;62039;50.000;9.064;2022-12-18T10:46:17;101840.56;;;-7.36
73734;BMP280;62039;50.000;9.064;2022-12-18T10:48:52;101835.47;;;-7.34
73734;BMP280;62039;50.000;9.064;2022-12-18T10:51:21;101833.75;;;-7.29
73734;BMP280;62039;50.000;9.064;2022-12-18T10:53:53;101828.66;;;-7.26
73734;BMP280;62039;50.000;9.064;2022-12-18T10:56:20;101829.47;;;-7.24
73734;BMP280;62039;50.000;9.064;2022-12-18T10:58:56;101822.69;;;-7.21
73734;BMP280;62039;50.000;9.064;2022-12-18T11:01:24;101834.50;;;-7.15
73734;BMP280;62039;50.000;9.064;2022-12-18T11:04:00;101833.63;;;-7.09
73734;BMP280;62039;50.000;9.064;2022-12-18T11:06:28;101836.09;;;-7.05
73734;BMP280;62039;50.000;9.064;2022-12-18T11:08:59;101830.16;;;-7.02
73734;BMP280;62039;50.000;9.064;2022-12-18T11:11:26;101825.09;;;-6.99
73734;BMP280;62039;50.000;9.064;2022-12-18T11:14:00;101831.81;;;-6.94
73734;BMP280;62039;50.000;9.064;2022-12-18T11:16:30;101835.16;;;-6.89
73734;BMP280;62039;50.000;9.064;2022-12-18T11:19:19;101835.13;;;-6.86
73734;BMP280;62039;50.000;9.064;2022-12-18T11:21:46;101830.00;;;-6.83
73734;BMP280;62039;50.000;9.064;2022-12-18T11:24:20;101824.03;;;-6.78
73734;BMP280;62039;50.000;9.064;2022-12-18T11:26:47;101827.41;;;-6.73
73734;BMP280;62039;50.000;9.064;2022-12-18T11:29:16;101818.88;;;-6.66
73734;BMP280;62039;50.000;9.064;2022-12-18T11:31:45;101817.06;;;-6.58
73734;BMP280;62039;50.000;9.064;2022-12-18T11:34:16;101822.94;;;-6.50
73734;BMP280;62039;50.000;9.064;2022-12-18T11:36:55;101802.50;;;-6.43
73734;BMP280;62039;50.000;9.064;2022-12-18T11:39:30;101803.28;;;-6.36
73734;BMP280;62039;50.000;9.064;2022-12-18T11:42:01;101794.75;;;-6.29
73734;BMP280;62039;50.000;9.064;2022-12-18T11:44:35;101795.56;;;-6.25
73734;BMP280;62039;50.000;9.064;2022-12-18T11:47:09;101796.34;;;-6.19
73734;BMP280;62039;50.000;9.064;2022-12-18T11:49:39;101788.63;;;-6.14
73734;BMP280;62039;50.000;9.064;2022-12-18T11:52:12;101784.31;;;-6.08
73734;BMP280;62039;50.000;9.064;2022-12-18T11:54:40;101778.31;;;-6.02
73734;BMP280;62039;50.000;9.064;2022-12-18T11:57:13;101779.94;;;-5.98
73734;BMP280;62039;50.000;9.064;2022-12-18T11:59:48;101793.47;;;-5.93
73734;BMP280;62039;50.000;9.064;2022-12-18T12:02:28;101791.72;;;-5.89
73734;BMP280;62039;50.000;9.064;2022-12-18T12:05:04;101789.16;;;-5.86
73734;BMP280;62039;50.000;9.064;2022-12-18T12:07:44;101797.56;;;-5.81
73734;BMP280;62039;50.000;9.064;2022-12-18T12:10:28;101787.34;;;-5.78
73734;BMP280;62039;50.000;9.064;2022-12-18T12:13:07;101780.44;;;-5.70
73734;BMP280;62039;50.000;9.064;2022-12-18T12:15:43;101793.06;;;-5.63
73734;BMP280;62039;50.000;9.064;2022-12-18T12:18:25;101787.88;;;-5.55
73734;BMP280;62039;50.000;9.064;2022-12-18T12:20:59;101789.44;;;-5.46
73734;BMP280;62039;50.000;9.064;2022-12-18T12:23:36;101788.50;;;-5.41
73734;BMP280;62039;50.000;9.064;2022-12-18T12:26:10;101785.03;;;-5.37
73734;BMP280;62039;50.000;9.064;2022-12-18T12:29:01;101781.59;;;-5.33
73734;BMP280;62039;50.000;9.064;2022-12-18T12:31:45;101790.03;;;-5.31
73734;BMP280;62039;50.000;9.064;2022-12-18T12:34:22;101792.56;;;-5.28
73734;BMP280;62039;50.000;9.064;2022-12-18T12:36:59;101793.38;;;-5.26
73734;BMP280;62039;50.000;9.064;2022-12-18T12:39:28;101792.47;;;-5.23
73734;BMP280;62039;50.000;9.064;2022-12-18T12:41:57;101800.94;;;-5.21
73734;BMP280;62039;50.000;9.064;2022-12-18T12:44:26;101794.97;;;-5.18
73734;BMP280;62039;50.000;9.064;2022-12-18T12:46:58;101791.56;;;-5.17
73734;BMP280;62039;50.000;9.064;2022-12-18T12:49:29;101788.13;;;-5.16
73734;BMP280;62039;50.000;9.064;2022-12-18T12:52:08;101790.69;;;-5.16
73734;BMP280;62039;50.000;9.064;2022-12-18T12:54:37;101768.66;;;-5.19
73734;BMP280;62039;50.000;9.064;2022-12-18T12:57:09;101774.59;;;-5.18
73734;BMP280;62039;50.000;9.064;2022-12-18T12:59:46;101771.22;;;-5.21
73734;BMP280;62039;50.000;9.064;2022-12-18T13:02:20;101764.44;;;-5.22
73734;BMP280;62039;50.000;9.064;2022-12-18T13:04:56;101747.44;;;-5.23
73734;BMP280;62039;50.000;9.064;2022-12-18T13:07:26;101749.13;;;-5.22
73734;BMP280;62039;50.000;9.064;2022-12-18T13:10:28;101740.63;;;-5.21
73734;BMP280;62039;50.000;9.064;2022-12-18T13:12:59;101738.09;;;-5.22
73734;BMP280;62039;50.000;9.064;2022-12-18T13:15:33;101742.34;;;-5.23
73734;BMP280;62039;50.000;9.064;2022-12-18T13:18:12;101738.13;;;-5.24
73734;BMP280;62039;50.000;9.064;2022-12-18T13:20:42;101745.75;;;-5.24
73734;BMP280;62039;50.000;9.064;2022-12-18T13:23:26;101750.06;;;-5.24
73734;BMP280;62039;50.000;9.064;2022-12-18T13:25:54;101743.22;;;-5.24
73734;BMP280;62039;50.000;9.064;2022-12-18T13:28:22;101741.50;;;-5.22
73734;BMP280;62039;50.000;9.064;2022-12-18T13:30:53;101738.91;;;-5.18
73734;BMP280;62039;50.000;9.064;2022-12-18T13:33:49;101744.84;;;-5.18
73734;BMP280;62039;50.000;9.064;2022-12-18T13:36:37;101751.59;;;-5.17
73734;BMP280;62039;50.000;9.064;2022-12-18T13:39:31;101753.25;;;-5.13
73734;BMP280;62039;50.000;9.064;2022-12-18T13:45:37;101743.91;;;-5.12
73734;BMP280;62039;50.000;9.064;2022-12-18T13:48:05;101739.59;;;-5.10
73734;BMP280;62039;50.000;9.064;2022-12-18T13:50:40;101743.00;;;-5.10
73734;BMP280;62039;50.000;9.064;2022-12-18T13:53:18;101743.81;;;-5.08
73734;BMP280;62039;50.000;9.064;2022-12-18T13:55:49;101742.16;;;-5.10
73734;BMP280;62039;50.000;9.064;2022-12-18T13:58:15;101748.06;;;-5.08
73734;BMP280;62039;50.000;9.064;2022-12-18T14:00:43;101755.69;;;-5.05
73734;BMP280;62039;50.000;9.064;2022-12-18T14:03:20;101751.38;;;-5.03
73734;BMP280;62039;50.000;9.064;2022-12-18T14:05:53;101738.63;;;-5.03
73734;BMP280;62039;50.000;9.064;2022-12-18T14:08:23;101736.03;;;-5.00
73734;BMP280;62039;50.000;9.064;2022-12-18T14:10:50;101736.88;;;-4.98
73734;BMP280;62039;50.000;9.064;2022-12-18T14:13:21;101733.38;;;-4.94